Terminal Aerodrome Forecast
Issued by NWS Upton, NY

Home | Current Version | Previous Version | Text Only | Print | Product List | Glossary On
Versions: 1 2 3 4 5 6 7 8 9 10 11 12 13 14 15 16 17 18 19 20 21 22 23 24 25 26 27 28
000
FTUS41 KOKX 221700
TAFBDR
TAF
KBDR 221740Z 2218/2318 11010KT P6SM SCT025 BKN050
     FM230200 07008KT P6SM BKN020 OVC035
     FM231500 09009KT P6SM BKN030 OVC050
     FM231700 11010KT P6SM SCT030 BKN050=

USA.gov is the U.S. government's official web portal to all federal, state and local government web resources and services.